Data for 03/22/2017

Time Sea-Level Adjusted Pressure Absolute Pressure Temperature Relative Humidity Dew Point   
(mb) (inHg) (mb) (inHg) (C) (F) (%) (C) (F)
00:05 1012 29.88 841 24.83 2.3 36.1 75 -1.6 29.1
00:10 1012 29.88 841 24.83 2.3 36.1 75 -1.7 29
00:15 1012 29.88 841 24.83 2.4 36.3 75 -1.6 29.1
00:20 1012 29.88 841 24.83 2.2 36 77 -1.3 29.6
00:25 1012 29.88 841 24.83 1.9 35.3 79 -1.4 29.5
00:30 1012 29.88 842 24.86 1.6 34.9 80 -1.4 29.4
00:35 1012 29.88 842 24.86 1.7 35 80 -1.4 29.4
00:40 1013 29.91 842 24.86 1.7 35 80 -1.4 29.4
00:45 1013 29.91 842 24.86 1.8 35.2 79 -1.4 29.4
00:50 1012 29.88 842 24.86 1.8 35.3 79 -1.4 29.5
00:55 1012 29.88 842 24.86 1.7 35 80 -1.4 29.5
01:00 1012 29.88 841 24.83 1.5 34.7 81 -1.5 29.4
01:05 1012 29.88 841 24.83 1.4 34.5 80 -1.6 29.1
01:10 1012 29.88 841 24.83 1.5 34.7 78 -1.9 28.6
01:15 1012 29.88 841 24.83 1.4 34.6 80 -1.6 29.1
01:20 1012 29.88 841 24.83 1.3 34.3 81 -1.7 28.9
01:25 1012 29.88 841 24.83 1.2 34.2 81 -1.6 29.1
01:30 1012 29.88 841 24.83 1.1 34.1 81 -1.7 28.9
01:35 1012 29.88 841 24.83 1.2 34.1 81 -1.8 28.8
01:40 1012 29.88 841 24.83 1.2 34.2 80 -1.8 28.8
01:45 1012 29.88 841 24.83 1.6 34.9 78 -1.9 28.6
01:50 1012 29.88 841 24.83 1.9 35.5 76 -1.8 28.8
01:55 1012 29.88 841 24.83 1.9 35.4 76 -1.8 28.8
02:00 1012 29.88 841 24.83 1.9 35.3 77 -1.8 28.8
02:05 1012 29.88 841 24.83 1.7 35.1 77 -1.8 28.8
02:10 1012 29.88 841 24.83 1.6 34.8 78 -1.8 28.8
02:15 1012 29.88 841 24.83 1.5 34.8 78 -1.9 28.6
02:20 1012 29.88 841 24.83 1.6 34.9 78 -1.9 28.7
02:25 1012 29.88 841 24.83 1.6 35 78 -1.8 28.7
02:30 1012 29.88 841 24.83 1.7 35.1 78 -1.7 28.9
02:35 1012 29.88 841 24.83 1.7 35.1 78 -1.6 29.1
02:40 1012 29.88 841 24.83 1.7 35.1 79 -1.6 29.1
02:45 1012 29.88 841 24.83 1.6 34.9 80 -1.6 29.2
02:50 1012 29.88 842 24.86 1.5 34.8 80 -1.5 29.3
02:55 1013 29.91 842 24.86 1.6 34.9 80 -1.5 29.3
03:00 1014 29.94 843 24.89 1.6 34.9 82 -1.2 29.9
03:05 1014 29.94 843 24.89 1.6 34.8 83 -1 30.2
03:10 1014 29.94 843 24.89 1.7 35 83 -0.8 30.5
03:15 1014 29.94 843 24.89 1.8 35.2 83 -0.8 30.6
03:20 1014 29.94 843 24.89 2 35.6 83 -0.6 30.9
03:25 1014 29.94 844 24.92 1.7 35 86 -0.4 31.2
03:30 1014 29.94 844 24.92 1.4 34.5 87 -0.5 31.1
03:35 1014 29.94 844 24.92 1.3 34.3 88 -0.6 30.9
03:40 1014 29.94 844 24.92 1.2 34.1 88 -0.5 31
03:45 1014 29.94 843 24.89 1.1 33.9 89 -0.5 31.1
03:50 1014 29.94 843 24.89 0.9 33.7 90 -0.5 31.1
03:55 1014 29.94 843 24.89 0.9 33.5 91 -0.5 31.1
04:00 1014 29.94 843 24.89 0.9 33.6 91 -0.4 31.3
04:05 1014 29.94 843 24.89 0.9 33.6 91 -0.3 31.4
04:10 1013 29.91 843 24.89 1 33.8 91 -0.3 31.5
04:15 1013 29.91 842 24.86 1.1 34 91 -0.1 31.8
04:20 1013 29.91 842 24.86 1.2 34.2 92 0 32
04:25 1013 29.91 842 24.86 1.5 34.8 92 0.3 32.6
04:30 1013 29.91 842 24.86 1.9 35.4 91 0.6 33
04:35 1013 29.91 842 24.86 2 35.6 90 0.5 32.9
04:40 1013 29.91 842 24.86 2 35.5 90 0.5 32.8
04:45 1013 29.91 842 24.86 2.1 35.9 90 0.6 33.1
04:50 1013 29.91 842 24.86 2.5 36.5 88 0.7 33.3
04:55 1013 29.91 842 24.86 2.4 36.3 88 0.6 33.2
05:00 1013 29.91 842 24.86 2.1 35.8 89 0.5 32.9
05:05 1013 29.91 842 24.86 2.1 35.9 89 0.5 32.9
05:10 1013 29.91 842 24.86 2.4 36.3 88 0.6 33.1
05:15 1013 29.91 842 24.86 2.3 36.2 88 0.6 33.1
05:20 1013 29.91 842 24.86 2.3 36.2 89 0.6 33.1
05:25 1013 29.91 842 24.86 2.3 36.1 88 0.6 33
05:30 1013 29.91 842 24.86 2.3 36.2 88 0.6 33.1
05:35 1013 29.91 842 24.86 2.4 36.4 88 0.7 33.2
05:40 1013 29.91 842 24.86 2.5 36.5 88 0.6 33.2
05:45 1013 29.91 842 24.86 2.5 36.5 88 0.6 33.1
05:50 1013 29.91 842 24.86 2.6 36.7 87 0.7 33.2
05:55 1013 29.91 842 24.86 2.7 36.8 87 0.7 33.2
06:00 1013 29.91 842 24.86 2.7 36.8 87 0.7 33.2
06:05 1013 29.91 842 24.86 2.6 36.7 87 0.7 33.2
06:10 1013 29.91 842 24.86 2.6 36.7 87 0.7 33.2
06:15 1013 29.91 842 24.86 2.6 36.7 87 0.7 33.2
06:20 1013 29.91 842 24.86 2.6 36.7 87 0.7 33.2
06:25 1013 29.91 842 24.86 2.7 36.8 86 0.6 33.1
06:30 1013 29.91 842 24.86 2.6 36.8 86 0.6 33.1
06:35 1013 29.91 842 24.86 2.6 36.7 86 0.6 33
06:40 1013 29.91 842 24.86 2.8 37 85 0.6 33
06:45 1013 29.91 843 24.89 2.8 37.1 85 0.5 32.9
06:50 1013 29.91 843 24.89 2.8 37 85 0.5 32.9
06:55 1013 29.91 843 24.89 2.8 37 84 0.4 32.8
07:00 1013 29.91 843 24.89 3.1 37.7 82 0.4 32.8
07:05 1014 29.94 843 24.89 3.3 37.9 83 0.6 33
07:10 1014 29.94 843 24.89 3.1 37.5 84 0.6 33
07:15 1014 29.94 843 24.89 3 37.4 84 0.5 32.9
07:20 1013 29.91 843 24.89 3 37.3 84 0.6 33
07:25 1013 29.91 843 24.89 2.8 37 85 0.5 32.9
07:30 1013 29.91 843 24.89 2.6 36.7 86 0.4 32.8
07:35 1013 29.91 843 24.89 2.3 36.1 87 0.3 32.5
07:40 1013 29.91 843 24.89 1.9 35.4 88 0.2 32.3
07:45 1014 29.94 843 24.89 1.8 35.2 89 0.1 32.2
07:50 1014 29.94 843 24.89 1.9 35.4 88 0.2 32.3
07:55 1014 29.94 843 24.89 2.1 35.7 88 0.3 32.5
08:00 1014 29.94 843 24.89 2.2 35.9 87 0.3 32.5
08:05 1014 29.94 843 24.89 2.4 36.4 86 0.4 32.7
08:10 1014 29.94 843 24.89 2.9 37.1 85 0.6 33.1
08:15 1014 29.94 843 24.89 3.1 37.6 83 0.6 33.1
08:20 1014 29.94 843 24.89 3.6 38.5 81 0.7 33.3
08:25 1014 29.94 843 24.89 4.1 39.4 79 0.9 33.6
08:30 1014 29.94 843 24.89 4.5 40.1 79 1.2 34.1
08:35 1014 29.94 843 24.89 4.7 40.4 78 1.2 34.2
08:40 1014 29.94 843 24.89 4.3 39.7 79 1.1 33.9
08:45 1014 29.94 843 24.89 4 39.1 80 0.8 33.5
08:50 1014 29.94 843 24.89 4.1 39.4 80 0.9 33.7
08:55 1014 29.94 843 24.89 4.4 40 79 1.1 34
09:00 1014 29.94 843 24.89 4.4 40 79 1.1 34.1
09:05 1014 29.94 843 24.89 4.8 40.7 79 1.5 34.6
09:10 1014 29.94 843 24.89 5.6 42.2 75 1.5 34.7
09:15 1014 29.94 843 24.89 5.8 42.5 75 1.8 35.2
09:20 1014 29.94 843 24.89 6.9 44.4 71 2 35.5
09:25 1014 29.94 843 24.89 7.7 45.9 68 2.3 36.1
09:30 1014 29.94 843 24.89 7.9 46.2 68 2.5 36.4
09:35 1014 29.94 843 24.89 7.8 46 67 2.2 35.9
09:40 1014 29.94 843 24.89 7.9 46.1 69 2.5 36.5
09:45 1014 29.94 843 24.89 8.2 46.8 66 2.3 36.1
09:50 1014 29.94 843 24.89 8.8 47.9 65 2.7 36.8
09:55 1014 29.94 843 24.89 9.1 48.4 63 2.6 36.6
10:00 1014 29.94 843 24.89 9.2 48.6 63 2.7 36.8
10:05 1014 29.94 843 24.89 9.6 49.3 61 2.5 36.5
10:10 1014 29.94 843 24.89 9.7 49.4 62 2.7 36.8
10:15 1014 29.94 843 24.89 10 50 61 2.8 37
10:20 1014 29.94 843 24.89 10.4 50.7 60 3 37.3
10:25 1014 29.94 843 24.89 10.2 50.4 61 3.1 37.6
10:30 1014 29.94 843 24.89 10.3 50.5 62 3.3 38
10:35 1014 29.94 843 24.89 9.9 49.7 61 2.8 37.1
10:40 1014 29.94 843 24.89 9.9 49.9 61 2.7 36.9
10:45 1014 29.94 843 24.89 10.4 50.8 59 2.8 37
10:50 1014 29.94 843 24.89 10.1 50.1 62 3.1 37.6
10:55 1014 29.94 843 24.89 10 50 60 2.6 36.7
11:00 1014 29.94 843 24.89 9.9 49.8 59 2.4 36.3
11:05 1014 29.94 843 24.89 10.2 50.3 59 2.6 36.7
11:10 1014 29.94 843 24.89 10.5 51 56 2.2 36
11:15 1013 29.91 843 24.89 10.8 51.4 53 1.7 35
11:20 1013 29.91 843 24.89 11 51.7 54 2 35.5
11:25 1013 29.91 843 24.89 11.7 53.1 52 2.4 36.2
11:30 1013 29.91 843 24.89 11.8 53.3 53 2.6 36.7
11:35 1013 29.91 843 24.89 11.8 53.2 52 2.3 36.2
11:40 1013 29.91 843 24.89 11.9 53.3 52 2.5 36.5
11:45 1013 29.91 842 24.86 12 53.5 52 2.6 36.7
11:50 1013 29.91 842 24.86 11.7 53.1 53 2.4 36.3
11:55 1013 29.91 842 24.86 11.3 52.3 54 2.4 36.4
12:00 1013 29.91 842 24.86 11.3 52.3 52 1.9 35.5
12:05 1013 29.91 842 24.86 11.4 52.6 55 2.7 36.8
12:10 1013 29.91 842 24.86 11.9 53.3 50 1.9 35.4
12:15 1013 29.91 842 24.86 12.1 53.7 51 2.2 36
12:20 1013 29.91 842 24.86 12.1 53.8 50 2.2 35.9
12:25 1013 29.91 842 24.86 12.1 53.8 49 1.9 35.4
12:30 1013 29.91 842 24.86 12.8 55 46 1.5 34.8
12:35 1013 29.91 842 24.86 12.6 54.8 49 2.3 36.2
12:40 1013 29.91 842 24.86 12.7 54.8 48 2 35.6
12:45 1013 29.91 842 24.86 12.9 55.2 46 1.7 35.1
12:50 1013 29.91 842 24.86 13 55.5 47 2.2 35.9
12:55 1013 29.91 842 24.86 13 55.3 51 3.2 37.8
13:00 1013 29.91 842 24.86 13.2 55.8 46 2 35.6
13:05 1013 29.91 842 24.86 13.5 56.3 48 2.7 36.9
13:10 1013 29.91 842 24.86 13.4 56.1 46 2.1 35.7
13:15 1013 29.91 842 24.86 13.5 56.3 45 1.8 35.2
13:20 1013 29.91 842 24.86 14 57.1 44 2.1 35.7
13:25 1013 29.91 842 24.86 14.6 58.2 43 2.1 35.9
13:30 1013 29.91 842 24.86 14.3 57.7 44 2.2 36
13:35 1013 29.91 842 24.86 14 57.1 42 1.3 34.3
13:40 1013 29.91 842 24.86 14.5 58.2 42 1.9 35.5
13:45 1013 29.91 842 24.86 15.2 59.4 40 1.9 35.4
13:50 1012 29.88 842 24.86 14.4 57.9 44 2.5 36.4
13:55 1012 29.88 842 24.86 14.4 57.8 41 1.5 34.7
14:00 1012 29.88 841 24.83 15.2 59.4 40 1.6 34.9
14:05 1012 29.88 841 24.83 15.2 59.4 40 1.8 35.2
14:10 1012 29.88 841 24.83 15.2 59.3 39 1.4 34.5
14:15 1012 29.88 841 24.83 15 58.9 41 1.7 35.1
14:20 1012 29.88 841 24.83 14 57.2 41 1 33.8
14:25 1012 29.88 841 24.83 14.3 57.7 40 1.1 33.9
14:30 1012 29.88 841 24.83 14.2 57.5 41 1.3 34.4
14:35 1012 29.88 841 24.83 14.4 58 39 0.8 33.4
14:40 1012 29.88 841 24.83 14.5 58.1 40 1.3 34.3
14:45 1012 29.88 841 24.83 14.6 58.2 37 0.2 32.3
14:50 1012 29.88 841 24.83 14.4 57.9 38 0.2 32.4
14:55 1012 29.88 841 24.83 14.7 58.4 36 -0.1 31.9
15:00 1012 29.88 841 24.83 15.4 59.7 34 -0.4 31.2
15:05 1012 29.88 841 24.83 15.5 59.8 35 -0 32
15:10 1012 29.88 841 24.83 15 58.9 36 0 32
15:15 1012 29.88 841 24.83 14.1 57.3 37 -0.3 31.5
15:20 1012 29.88 841 24.83 14.2 57.6 37 -0.3 31.5
15:25 1012 29.88 841 24.83 14.3 57.7 36 -0.3 31.4
15:30 1012 29.88 841 24.83 14 57.2 35 -1.4 29.6
15:35 1012 29.88 841 24.83 14.1 57.4 35 -1.1 30
15:40 1012 29.88 841 24.83 14 57.2 35 -1.1 30
15:45 1012 29.88 841 24.83 14.2 57.5 33 -1.7 29
15:50 1011 29.85 841 24.83 13.8 56.9 35 -1.2 29.9
15:55 1011 29.85 841 24.83 13.6 56.4 35 -1.7 28.9
16:00 1011 29.85 841 24.83 13.9 57.1 31 -2.8 27
16:05 1011 29.85 840 24.81 14.3 57.7 33 -1.9 28.6
16:10 1011 29.85 840 24.81 14.5 58.1 32 -1.7 28.9
16:15 1011 29.85 841 24.83 14.5 58 33 -1.5 29.3
16:20 1011 29.85 841 24.83 14.5 58 33 -1.5 29.3
16:25 1011 29.85 840 24.81 13.9 57.1 32 -2.3 27.8
16:30 1011 29.85 840 24.81 14.2 57.5 31 -2.5 27.6
16:35 1011 29.85 840 24.81 14.1 57.4 30 -2.9 26.8
16:40 1011 29.85 840 24.81 14 57.1 33 -2.2 28.1
16:45 1011 29.85 840 24.81 13.3 55.9 34 -2.4 27.7
16:50 1011 29.85 840 24.81 13 55.5 32 -3.3 26.1
16:55 1011 29.85 840 24.81 13.2 55.8 33 -2.8 26.9
17:00 1011 29.85 840 24.81 13.5 56.2 32 -2.8 27
17:05 1011 29.85 840 24.81 13.5 56.2 32 -2.9 26.8
17:10 1011 29.85 840 24.81 13.2 55.7 35 -1.7 28.9
17:15 1011 29.85 840 24.81 12.8 55 35 -2.3 27.8
17:20 1011 29.85 840 24.81 12.6 54.8 33 -3 26.7
17:25 1011 29.85 841 24.83 12.6 54.6 35 -2.5 27.4
17:30 1011 29.85 841 24.83 12.6 54.7 36 -1.9 28.5
17:35 1011 29.85 841 24.83 12.7 54.9 36 -1.7 28.9
17:40 1011 29.85 841 24.83 12.8 55 36 -1.8 28.7
17:45 1011 29.85 841 24.83 12.5 54.4 37 -1.8 28.7
17:50 1012 29.88 841 24.83 12.3 54.2 38 -1.7 29
17:55 1012 29.88 841 24.83 12.3 54.1 40 -0.8 30.5
18:00 1012 29.88 841 24.83 12.2 54 37 -1.8 28.7
18:05 1011 29.85 841 24.83 12 53.5 34 -3.2 26.3
18:10 1012 29.88 841 24.83 11.8 53.3 36 -2.5 27.4
18:15 1012 29.88 841 24.83 11.9 53.5 35 -2.9 26.8
18:20 1012 29.88 841 24.83 12 53.7 35 -2.8 27
18:25 1012 29.88 841 24.83 12.2 54 37 -1.9 28.6
18:30 1012 29.88 841 24.83 12.3 54.1 41 -0.4 31.2
18:35 1012 29.88 841 24.83 12.2 54 39 -1.4 29.4
18:40 1012 29.88 841 24.83 12.1 53.7 38 -1.7 28.9
18:45 1012 29.88 841 24.83 12 53.7 37 -2 28.3
18:50 1012 29.88 841 24.83 12 53.6 38 -1.9 28.6
18:55 1012 29.88 841 24.83 11.9 53.4 36 -2.8 26.9
19:00 1012 29.88 841 24.83 11.6 52.9 37 -2.5 27.4
19:05 1012 29.88 841 24.83 11 51.9 40 -2 28.4
19:10 1012 29.88 841 24.83 10.3 50.5 45 -1 30.2
19:15 1012 29.88 841 24.83 9.9 49.7 46 -1.2 29.8
19:20 1012 29.88 841 24.83 9.9 49.7 47 -0.8 30.6
19:25 1012 29.88 841 24.83 9.4 48.8 52 0 32.1
19:30 1012 29.88 841 24.83 8.9 48.1 54 0.1 32.1
19:35 1012 29.88 841 24.83 8.9 48 53 -0 31.9
19:40 1012 29.88 841 24.83 8.9 48.1 54 0.1 32.2
19:45 1012 29.88 841 24.83 8.7 47.7 55 0.3 32.5
19:50 1012 29.88 841 24.83 8.4 47.2 58 0.6 33.1
19:55 1012 29.88 841 24.83 8.1 46.7 59 0.5 33
20:00 1012 29.88 841 24.83 8 46.5 60 0.9 33.5
20:05 1012 29.88 841 24.83 7.7 45.8 63 1.1 33.9
20:10 1012 29.88 841 24.83 7.3 45.1 64 1 33.8
20:15 1012 29.88 841 24.83 7.1 44.8 64 0.9 33.6
20:20 1012 29.88 841 24.83 6.9 44.3 67 1.2 34.1
20:25 1012 29.88 841 24.83 6.7 44.1 65 0.7 33.2
20:30 1012 29.88 841 24.83 6.8 44.3 65 0.7 33.3
20:35 1012 29.88 841 24.83 6.9 44.3 65 0.7 33.2
20:40 1012 29.88 841 24.83 6.8 44.3 64 0.5 32.9
20:45 1012 29.88 841 24.83 6.9 44.4 63 0.4 32.8
20:50 1012 29.88 841 24.83 6.9 44.4 63 0.4 32.7
20:55 1012 29.88 841 24.83 6.8 44.3 63 0.4 32.6
21:00 1012 29.88 841 24.83 6.7 44.1 63 0.1 32.2
21:05 1012 29.88 841 24.83 6.7 44 63 0.2 32.4
21:10 1012 29.88 841 24.83 6.4 43.5 66 0.6 33
21:15 1012 29.88 841 24.83 5.9 42.6 67 0.3 32.6
21:20 1012 29.88 841 24.83 5.7 42.3 67 0.2 32.4
21:25 1012 29.88 841 24.83 5.6 42.2 68 0.2 32.3
21:30 1012 29.88 841 24.83 5.6 42 68 0.2 32.3
21:35 1012 29.88 841 24.83 5.4 41.8 70 0.3 32.6
21:40 1012 29.88 841 24.83 5.3 41.6 70 0.3 32.6
21:45 1012 29.88 841 24.83 5.2 41.4 71 0.3 32.5
21:50 1012 29.88 841 24.83 5.1 41.2 70 0.1 32.2
21:55 1012 29.88 841 24.83 5.1 41.1 70 0.1 32.1
22:00 1012 29.88 841 24.83 5.1 41.1 70 0.1 32.1
22:05 1012 29.88 841 24.83 5.1 41.2 69 0 32
22:10 1012 29.88 841 24.83 5.2 41.4 69 0 32
22:15 1012 29.88 841 24.83 5.2 41.4 69 0 32
22:20 1012 29.88 841 24.83 5.1 41.3 69 0 32
22:25 1012 29.88 841 24.83 5.1 41.3 69 -0 32
22:30 1012 29.88 841 24.83 5.1 41.1 69 -0.1 31.8
22:35 1012 29.88 841 24.83 5 41.1 69 -0.1 31.8
22:40 1012 29.88 841 24.83 5 41 70 -0.1 31.8
22:45 1012 29.88 841 24.83 5 40.9 67 -0.6 30.9
22:50 1012 29.88 841 24.83 5.1 41.2 67 -0.6 30.9
22:55 1012 29.88 841 24.83 5.2 41.3 66 -0.7 30.8
23:00 1012 29.88 841 24.83 5.1 41.2 66 -0.6 30.9
23:05 1012 29.88 841 24.83 5 41 66 -0.8 30.6
23:10 1012 29.88 841 24.83 4.9 40.8 67 -0.6 30.8
23:15 1012 29.88 841 24.83 4.6 40.3 69 -0.6 30.9
23:20 1012 29.88 841 24.83 4.4 40 69 -0.7 30.8
23:25 1012 29.88 841 24.83 4.3 39.8 70 -0.7 30.8
23:30 1012 29.88 841 24.83 4.4 39.8 70 -0.7 30.8
23:35 1012 29.88 841 24.83 4.3 39.8 71 -0.5 31.1
23:40 1012 29.88 841 24.83 4.3 39.7 71 -0.4 31.2
23:45 1012 29.88 841 24.83 4.3 39.7 71 -0.5 31.1
23:50 1012 29.88 841 24.83 4.2 39.5 72 -0.4 31.2
23:55 1012 29.88 841 24.83 4.2 39.5 73 -0.3 31.4
24:00 1012 29.88 841 24.83 4.1 39.3 73 -0.3 31.4